Time;durP1;ratioP1;P1;durP2;ratioP2;P2;SDS_P1;SDS_P2;PMS_P1;PMS_P2;Temp;Humidity;BMP_temperature;BMP_pressure;BME280_temperature;BME280_humidity;BME280_pressure;Samples;Min_cycle;Max_cycle;Signal;HPM_P1;HPM_P2
2023/01/26 00:00:58;;;;;;;10.25;6.22;;;;;;;;;;4973736;28;20085;-61
2023/01/26 00:03:25;;;;;;;10.27;5.95;;;;;;;;;;4991420;28;20030;-61
2023/01/26 00:05:50;;;;;;;9.05;6.03;;;;;;;;;;4973917;28;20030;-61
2023/01/26 00:08:16;;;;;;;13.85;6.57;;;;;;;;;;4991522;28;20026;-61
2023/01/26 00:10:49;;;;;;;11.20;6.10;;;;;;;;;;4989976;28;20030;-62
2023/01/26 00:13:17;;;;;;;8.27;6.18;;;;;;;;;;4990595;28;20407;-63
2023/01/26 00:15:43;;;;;;;12.38;6.53;;;;;;;;;;4989746;28;20054;-60
2023/01/26 00:18:09;;;;;;;9.02;5.65;;;;;;;;;;4993205;28;20422;-59
2023/01/26 00:20:34;;;;;;;12.45;6.25;;;;;;;;;;4992879;28;20092;-59
2023/01/26 00:23:00;;;;;;;12.40;6.32;;;;;;;;;;4993041;28;20034;-59
2023/01/26 00:25:27;;;;;;;11.60;6.32;;;;;;;;;;4992918;28;20049;-59
2023/01/26 00:27:52;;;;;;;10.43;6.10;;;;;;;;;;4968941;28;20030;-59
2023/01/26 00:30:21;;;;;;;10.63;6.22;;;;;;;;;;4981653;28;20034;-59
2023/01/26 00:32:46;;;;;;;8.82;5.60;;;;;;;;;;4992756;28;20030;-59
2023/01/26 00:35:12;;;;;;;10.30;5.70;;;;;;;;;;4992748;28;20041;-59
2023/01/26 00:37:41;;;;;;;10.80;6.22;;;;;;;;;;4992748;28;20027;-60
2023/01/26 00:40:07;;;;;;;9.40;5.78;;;;;;;;;;4992385;28;20479;-59
2023/01/26 00:42:32;;;;;;;10.15;6.28;;;;;;;;;;4984165;28;20030;-59
2023/01/26 00:44:58;;;;;;;10.50;6.55;;;;;;;;;;4982054;28;20479;-59
2023/01/26 00:47:23;;;;;;;9.40;5.50;;;;;;;;;;4982505;28;20023;-59
2023/01/26 00:49:49;;;;;;;11.30;5.90;;;;;;;;;;4982786;28;20027;-59
2023/01/26 00:52:15;;;;;;;9.45;5.40;;;;;;;;;;4985941;28;20443;-58
2023/01/26 00:54:40;;;;;;;9.75;5.68;;;;;;;;;;4985701;28;20022;-59
2023/01/26 00:57:06;;;;;;;9.95;5.97;;;;;;;;;;4986129;28;20026;-59
2023/01/26 00:59:31;;;;;;;8.02;5.45;;;;;;;;;;4985663;28;20029;-59
2023/01/26 01:02:01;;;;;;;9.05;6.05;;;;;;;;;;4986507;28;20041;-60
2023/01/26 01:04:28;;;;;;;9.43;5.67;;;;;;;;;;4985159;28;20446;-60
2023/01/26 01:06:54;;;;;;;8.88;5.82;;;;;;;;;;4985815;28;20370;-59
2023/01/26 01:09:20;;;;;;;10.35;6.05;;;;;;;;;;4985125;28;20034;-59
2023/01/26 01:11:46;;;;;;;8.80;5.82;;;;;;;;;;4984904;28;20121;-60
2023/01/26 01:14:12;;;;;;;9.18;5.72;;;;;;;;;;4986649;28;20019;-59
2023/01/26 01:16:38;;;;;;;8.73;5.72;;;;;;;;;;4985038;28;20487;-59
2023/01/26 01:19:04;;;;;;;8.30;5.75;;;;;;;;;;4990350;28;20050;-59
2023/01/26 01:21:31;;;;;;;9.70;6.20;;;;;;;;;;4995378;28;20069;-58
2023/01/26 01:23:57;;;;;;;9.57;6.05;;;;;;;;;;4994641;28;20026;-59
2023/01/26 01:26:23;;;;;;;9.27;5.97;;;;;;;;;;4995439;28;20031;-59
2023/01/26 01:28:53;;;;;;;11.30;5.82;;;;;;;;;;4995161;28;20539;-59
2023/01/26 01:31:19;;;;;;;8.77;5.90;;;;;;;;;;4995243;28;20026;-59
2023/01/26 01:33:44;;;;;;;9.00;5.75;;;;;;;;;;4995092;28;20030;-59
2023/01/26 01:36:13;;;;;;;11.57;6.10;;;;;;;;;;4995236;28;20031;-58
2023/01/26 01:38:38;;;;;;;8.65;5.78;;;;;;;;;;4995364;28;20050;-59
2023/01/26 01:41:05;;;;;;;9.75;5.60;;;;;;;;;;4995409;28;20115;-59
2023/01/26 01:43:31;;;;;;;8.63;5.78;;;;;;;;;;4995432;28;20447;-59
2023/01/26 01:45:59;;;;;;;12.82;5.70;;;;;;;;;;4995386;28;20062;-59
2023/01/26 01:48:36;;;;;;;8.18;5.43;;;;;;;;;;4995234;28;20026;-59
2023/01/26 01:51:06;;;;;;;9.20;5.57;;;;;;;;;;4995400;28;20417;-59
2023/01/26 01:53:38;;;;;;;7.75;5.45;;;;;;;;;;4995159;28;20030;-59
2023/01/26 01:56:10;;;;;;;10.43;6.07;;;;;;;;;;4995235;28;20552;-58
2023/01/26 01:58:40;;;;;;;9.13;5.40;;;;;;;;;;4988197;28;20023;-59
2023/01/26 02:01:06;;;;;;;7.82;5.70;;;;;;;;;;4975036;28;20062;-59
2023/01/26 02:03:33;;;;;;;8.73;5.82;;;;;;;;;;4958388;28;20062;-59
2023/01/26 02:06:19;;;;;;;9.45;5.10;;;;;;;;;;4975561;28;20054;-59
2023/01/26 02:08:51;;;;;;;9.32;5.45;;;;;;;;;;4975755;28;20022;-59
2023/01/26 02:11:32;;;;;;;8.68;5.03;;;;;;;;;;4975750;28;20101;-59
2023/01/26 02:14:01;;;;;;;8.85;5.22;;;;;;;;;;4975427;28;20038;-61
2023/01/26 02:16:27;;;;;;;9.20;5.90;;;;;;;;;;4975353;28;20074;-59
2023/01/26 02:18:52;;;;;;;7.68;5.20;;;;;;;;;;4975323;28;20073;-59
2023/01/26 02:21:20;;;;;;;9.07;5.65;;;;;;;;;;4975248;28;20030;-59
2023/01/26 02:23:58;;;;;;;9.55;5.50;;;;;;;;;;4975464;28;20027;-59
2023/01/26 02:26:29;;;;;;;7.30;5.00;;;;;;;;;;4975096;28;20029;-60
2023/01/26 02:28:55;;;;;;;8.30;5.20;;;;;;;;;;4985921;28;20121;-60
2023/01/26 02:31:22;;;;;;;8.85;5.30;;;;;;;;;;4994400;28;20110;-59
2023/01/26 02:33:48;;;;;;;8.60;5.40;;;;;;;;;;4994548;28;20113;-59
2023/01/26 02:36:43;;;;;;;8.35;5.53;;;;;;;;;;4994413;28;20044;-60
2023/01/26 02:39:37;;;;;;;9.52;5.20;;;;;;;;;;4989653;28;20042;-59
2023/01/26 02:44:47;;;;;;;7.75;5.13;;;;;;;;;;4994596;28;20181;-59
2023/01/26 02:47:15;;;;;;;8.43;5.13;;;;;;;;;;4976918;28;20109;-59
2023/01/26 02:49:46;;;;;;;7.20;4.80;;;;;;;;;;4994261;28;20478;-60
2023/01/26 02:52:14;;;;;;;10.43;5.78;;;;;;;;;;4994231;28;20537;-59
2023/01/26 02:57:23;;;;;;;8.30;4.90;;;;;;;;;;4994076;28;20096;-59
2023/01/26 02:59:49;;;;;;;8.32;5.50;;;;;;;;;;4993915;28;20109;-59
2023/01/26 03:02:15;;;;;;;7.38;5.30;;;;;;;;;;4993857;28;20109;-59
2023/01/26 03:04:41;;;;;;;7.32;4.88;;;;;;;;;;4993933;28;20037;-59
2023/01/26 03:07:07;;;;;;;8.18;5.18;;;;;;;;;;4993828;28;20482;-59
2023/01/26 03:09:32;;;;;;;8.25;5.43;;;;;;;;;;4993808;28;20117;-59
2023/01/26 03:11:58;;;;;;;8.07;4.90;;;;;;;;;;4993745;28;20035;-59
2023/01/26 03:14:23;;;;;;;7.22;5.03;;;;;;;;;;4993042;28;20093;-60
2023/01/26 03:16:49;;;;;;;7.47;4.75;;;;;;;;;;4993525;28;20046;-59
2023/01/26 03:27:30;;;;;;;8.25;5.00;;;;;;;;;;4987849;28;20121;-59
2023/01/26 03:29:57;;;;;;;6.70;4.80;;;;;;;;;;4973981;28;20031;-59
2023/01/26 03:32:23;;;;;;;8.43;4.88;;;;;;;;;;4974078;28;20031;-59
2023/01/26 03:34:49;;;;;;;7.43;5.03;;;;;;;;;;4973853;28;20438;-59
2023/01/26 03:37:15;;;;;;;8.27;5.20;;;;;;;;;;4973886;28;20027;-59
2023/01/26 03:56:21;;;;;;;7.28;4.78;;;;;;;;;;4973792;28;20045;-59
2023/01/26 03:58:55;;;;;;;8.20;4.72;;;;;;;;;;4991373;28;20402;-59
2023/01/26 04:01:26;;;;;;;8.55;4.95;;;;;;;;;;4993207;28;20038;-60
2023/01/26 04:09:27;;;;;;;7.38;4.43;;;;;;;;;;4973888;28;20082;-59
2023/01/26 04:11:52;;;;;;;6.90;4.55;;;;;;;;;;4973483;28;20038;-59
2023/01/26 04:22:43;;;;;;;6.28;4.57;;;;;;;;;;4973773;28;20178;-59
2023/01/26 04:25:15;;;;;;;7.88;5.10;;;;;;;;;;4975059;28;20502;-59
2023/01/26 04:27:42;;;;;;;8.38;5.20;;;;;;;;;;4977439;28;20039;-59
2023/01/26 04:30:10;;;;;;;7.30;5.00;;;;;;;;;;4977360;28;20117;-59
2023/01/26 04:32:36;;;;;;;7.32;4.90;;;;;;;;;;4977282;28;20542;-59
2023/01/26 04:35:03;;;;;;;7.15;4.78;;;;;;;;;;4977468;28;20023;-59
2023/01/26 04:37:28;;;;;;;9.25;5.10;;;;;;;;;;4959818;28;20034;-59
2023/01/26 04:39:54;;;;;;;8.50;4.93;;;;;;;;;;4977085;28;20030;-59
2023/01/26 04:42:23;;;;;;;9.80;4.68;;;;;;;;;;4959747;28;20382;-59
2023/01/26 04:44:49;;;;;;;6.65;4.50;;;;;;;;;;4977039;28;20027;-59
2023/01/26 04:47:14;;;;;;;7.80;5.13;;;;;;;;;;4977071;28;20058;-59
2023/01/26 04:49:40;;;;;;;6.38;4.80;;;;;;;;;;4977007;28;20125;-59
2023/01/26 04:52:05;;;;;;;6.93;4.60;;;;;;;;;;4977134;28;20043;-59
2023/01/26 04:54:31;;;;;;;6.72;4.78;;;;;;;;;;4976905;28;20122;-59
2023/01/26 04:56:56;;;;;;;5.95;4.43;;;;;;;;;;4986550;28;20026;-60
2023/01/26 04:59:22;;;;;;;7.05;4.78;;;;;;;;;;4996284;28;20398;-59
2023/01/26 05:01:47;;;;;;;6.85;4.65;;;;;;;;;;4996364;28;20467;-59
2023/01/26 05:04:13;;;;;;;6.35;4.60;;;;;;;;;;4996106;28;20030;-59
2023/01/26 05:06:40;;;;;;;6.47;4.53;;;;;;;;;;4996125;28;20027;-59
2023/01/26 05:09:06;;;;;;;5.95;4.20;;;;;;;;;;4996092;28;20466;-59
2023/01/26 05:11:32;;;;;;;7.35;4.60;;;;;;;;;;4996229;28;20049;-58
2023/01/26 05:13:57;;;;;;;5.20;4.22;;;;;;;;;;4995966;28;20474;-59
2023/01/26 05:16:23;;;;;;;7.45;4.75;;;;;;;;;;4995777;28;20042;-59
2023/01/26 05:18:49;;;;;;;6.35;4.32;;;;;;;;;;4995606;28;20030;-58
2023/01/26 05:21:14;;;;;;;7.22;4.53;;;;;;;;;;4995992;28;20084;-59
2023/01/26 05:23:40;;;;;;;5.75;4.22;;;;;;;;;;4996042;28;20113;-59
2023/01/26 05:26:06;;;;;;;6.75;4.43;;;;;;;;;;4991215;28;20069;-59
2023/01/26 05:28:33;;;;;;;6.47;4.60;;;;;;;;;;4976217;28;20439;-59
2023/01/26 05:30:59;;;;;;;6.63;4.40;;;;;;;;;;4976427;28;20023;-59
2023/01/26 05:33:24;;;;;;;5.68;4.55;;;;;;;;;;4976204;28;20480;-59
2023/01/26 05:35:51;;;;;;;6.97;4.55;;;;;;;;;;4975752;28;20030;-59
2023/01/26 05:38:18;;;;;;;6.78;4.85;;;;;;;;;;4975564;28;20030;-59
2023/01/26 05:40:43;;;;;;;7.07;4.25;;;;;;;;;;4976120;28;20026;-60
2023/01/26 05:43:11;;;;;;;6.50;4.75;;;;;;;;;;4975997;28;20027;-58
2023/01/26 05:45:37;;;;;;;6.30;4.50;;;;;;;;;;4962949;28;20037;-60
2023/01/26 05:48:03;;;;;;;5.45;4.32;;;;;;;;;;4987881;28;20065;-59
2023/01/26 05:50:28;;;;;;;7.22;4.70;;;;;;;;;;4985743;28;20022;-60
2023/01/26 05:52:54;;;;;;;6.22;4.47;;;;;;;;;;4983906;28;20039;-59
2023/01/26 05:55:20;;;;;;;6.70;4.60;;;;;;;;;;4992279;28;20022;-59
2023/01/26 05:57:45;;;;;;;6.05;4.30;;;;;;;;;;4995424;28;20046;-60
2023/01/26 06:00:12;;;;;;;6.55;4.35;;;;;;;;;;4995260;28;20383;-59
2023/01/26 06:02:37;;;;;;;5.55;4.40;;;;;;;;;;4980063;28;20118;-61
2023/01/26 06:05:03;;;;;;;7.55;4.70;;;;;;;;;;4975536;28;20054;-59
2023/01/26 06:07:29;;;;;;;6.55;4.32;;;;;;;;;;4975513;28;20035;-59
2023/01/26 06:09:54;;;;;;;6.63;4.57;;;;;;;;;;4975343;28;20447;-60
2023/01/26 06:12:21;;;;;;;7.18;4.53;;;;;;;;;;4982099;28;20387;-62
2023/01/26 06:14:46;;;;;;;6.43;4.28;;;;;;;;;;4982570;28;20126;-61
2023/01/26 06:17:17;;;;;;;8.50;4.70;;;;;;;;;;4973957;28;20641;-61
2023/01/26 06:19:42;;;;;;;;;;;;;;;;;;4995420;28;20089;-60
2023/01/26 06:22:10;;;;;;;19.75;6.90;;;;;;;;;;4994873;28;19913;-61
2023/01/26 06:24:36;;;;;;;34.13;8.73;;;;;;;;;;4994541;28;20463;-61
2023/01/26 06:27:02;;;;;;;28.05;8.35;;;;;;;;;;4994555;28;20065;-60
2023/01/26 06:29:28;;;;;;;33.55;8.30;;;;;;;;;;4976981;28;20480;-61
2023/01/26 06:31:54;;;;;;;39.88;7.97;;;;;;;;;;4979270;28;20513;-61
2023/01/26 06:34:20;;;;;;;30.25;8.70;;;;;;;;;;4974950;28;20023;-61
2023/01/26 06:36:45;;;;;;;27.75;8.40;;;;;;;;;;4985127;28;20030;-61
2023/01/26 06:39:11;;;;;;;24.02;8.32;;;;;;;;;;4994516;28;20428;-61
2023/01/26 06:41:38;;;;;;;32.78;8.18;;;;;;;;;;4980864;28;20118;-60
2023/01/26 06:44:04;;;;;;;26.73;7.78;;;;;;;;;;4974690;28;20404;-59
2023/01/26 06:46:29;;;;;;;30.45;7.75;;;;;;;;;;4957854;28;20023;-61
2023/01/26 06:48:55;;;;;;;29.38;8.13;;;;;;;;;;4973042;28;20489;-59
2023/01/26 06:51:21;;;;;;;25.75;8.35;;;;;;;;;;4973307;28;20027;-59
2023/01/26 06:53:52;;;;;;;26.88;7.57;;;;;;;;;;4973097;28;20029;-60
2023/01/26 06:56:19;;;;;;;24.55;8.23;;;;;;;;;;4974152;28;20050;-60
2023/01/26 06:58:45;;;;;;;19.50;7.43;;;;;;;;;;4974187;28;20430;-60
2023/01/26 07:01:17;;;;;;;25.50;7.80;;;;;;;;;;4974362;28;20117;-61
2023/01/26 07:03:42;;;;;;;23.00;7.40;;;;;;;;;;4956909;28;20023;-61
2023/01/26 07:06:10;;;;;;;27.73;7.72;;;;;;;;;;4974692;28;20047;-61
2023/01/26 07:08:36;;;;;;;21.88;7.50;;;;;;;;;;4974362;28;20026;-61
2023/01/26 07:11:02;;;;;;;26.30;7.75;;;;;;;;;;4974416;28;20030;-59
2023/01/26 07:13:27;;;;;;;22.05;7.10;;;;;;;;;;4974262;28;20053;-59
2023/01/26 07:16:07;;;;;;;21.70;7.32;;;;;;;;;;4974162;28;20047;-60
2023/01/26 07:18:33;;;;;;;31.02;9.20;;;;;;;;;;4974280;28;20503;-61
2023/01/26 07:21:10;;;;;;;23.92;7.82;;;;;;;;;;4974169;28;20062;-62
2023/01/26 07:23:36;;;;;;;26.38;8.40;;;;;;;;;;4956896;28;20360;-60
2023/01/26 07:26:02;;;;;;;26.17;8.23;;;;;;;;;;4974368;28;20019;-63
2023/01/26 07:28:29;;;;;;;26.35;8.75;;;;;;;;;;4956787;28;20031;-60
2023/01/26 07:30:58;;;;;;;24.65;7.53;;;;;;;;;;4974025;28;20057;-60
2023/01/26 07:33:24;;;;;;;24.33;8.18;;;;;;;;;;4974025;28;20062;-60
2023/01/26 07:35:52;;;;;;;17.33;7.10;;;;;;;;;;4973805;28;20027;-60
2023/01/26 07:38:18;;;;;;;21.00;8.30;;;;;;;;;;4956726;28;20023;-61
2023/01/26 07:40:44;;;;;;;23.50;7.72;;;;;;;;;;4973729;28;20034;-60
2023/01/26 07:43:09;;;;;;;24.33;7.53;;;;;;;;;;4973837;28;20034;-60
2023/01/26 07:45:35;;;;;;;18.40;7.10;;;;;;;;;;4973863;28;20034;-60
2023/01/26 07:48:01;;;;;;;22.85;7.65;;;;;;;;;;4974014;28;20026;-61
2023/01/26 07:50:27;;;;;;;32.08;7.85;;;;;;;;;;4982219;28;20022;-61
2023/01/26 07:52:52;;;;;;;21.25;7.68;;;;;;;;;;4979637;28;20069;-62
2023/01/26 07:55:19;;;;;;;20.70;7.10;;;;;;;;;;4979235;28;20558;-61
2023/01/26 07:57:48;;;;;;;22.02;7.50;;;;;;;;;;4985203;28;20026;-60
2023/01/26 08:00:15;;;;;;;21.60;7.80;;;;;;;;;;4985545;28;20446;-60
2023/01/26 08:02:41;;;;;;;20.90;7.30;;;;;;;;;;4988882;28;20034;-60
2023/01/26 08:05:07;;;;;;;20.15;7.57;;;;;;;;;;4991923;28;20023;-61
2023/01/26 08:07:33;;;;;;;20.98;6.90;;;;;;;;;;4978321;28;20027;-61
2023/01/26 08:09:58;;;;;;;20.10;6.88;;;;;;;;;;4975478;28;20542;-60
2023/01/26 08:12:24;;;;;;;23.02;7.80;;;;;;;;;;4973453;28;20027;-62
2023/01/26 08:14:50;;;;;;;20.20;7.60;;;;;;;;;;4973470;28;20106;-61
2023/01/26 08:17:16;;;;;;;21.30;7.78;;;;;;;;;;4973858;28;20133;-61
2023/01/26 08:19:42;;;;;;;18.92;6.97;;;;;;;;;;4973354;28;20043;-62
2023/01/26 08:22:08;;;;;;;15.45;6.50;;;;;;;;;;4973394;28;20031;-62
2023/01/26 08:24:34;;;;;;;22.23;7.85;;;;;;;;;;4956065;28;20023;-62
2023/01/26 08:26:59;;;;;;;19.33;6.88;;;;;;;;;;4973380;28;20023;-62
2023/01/26 08:29:25;;;;;;;23.48;8.15;;;;;;;;;;4973307;28;20166;-62
2023/01/26 08:31:51;;;;;;;19.25;7.20;;;;;;;;;;4980325;28;20046;-61
2023/01/26 08:34:16;;;;;;;19.45;7.20;;;;;;;;;;4987993;28;20050;-61
2023/01/26 08:36:42;;;;;;;16.98;6.32;;;;;;;;;;4992631;28;20035;-60
2023/01/26 08:39:08;;;;;;;22.10;7.15;;;;;;;;;;4992935;28;20023;-60
2023/01/26 08:41:34;;;;;;;20.92;6.90;;;;;;;;;;4992596;28;20520;-60
2023/01/26 08:43:59;;;;;;;19.08;7.57;;;;;;;;;;4988962;28;20101;-60
2023/01/26 08:46:25;;;;;;;18.75;6.57;;;;;;;;;;4981572;28;20477;-60
2023/01/26 08:48:51;;;;;;;17.77;7.30;;;;;;;;;;4988927;28;20414;-60
2023/01/26 08:51:16;;;;;;;22.02;7.05;;;;;;;;;;4973436;28;20035;-60
2023/01/26 08:53:42;;;;;;;20.02;8.02;;;;;;;;;;4973038;28;20628;-60
2023/01/26 08:56:12;;;;;;;18.98;6.68;;;;;;;;;;4973160;28;20030;-61
2023/01/26 08:58:38;;;;;;;13.38;6.65;;;;;;;;;;4956350;28;20023;-61
2023/01/26 09:01:10;;;;;;;15.15;6.95;;;;;;;;;;4973098;28;20035;-62
2023/01/26 09:03:36;;;;;;;22.45;7.30;;;;;;;;;;4972078;28;20034;-63
2023/01/26 09:06:03;;;;;;;16.67;6.75;;;;;;;;;;4955421;28;20023;-61
2023/01/26 09:08:29;;;;;;;18.55;6.85;;;;;;;;;;4973015;28;20033;-62
2023/01/26 09:10:55;;;;;;;12.48;6.38;;;;;;;;;;4974133;28;20198;-61
2023/01/26 09:13:20;;;;;;;16.00;6.90;;;;;;;;;;4976577;28;20190;-62
2023/01/26 09:15:46;;;;;;;18.20;6.75;;;;;;;;;;4976370;28;20057;-61
2023/01/26 09:18:12;;;;;;;21.85;7.28;;;;;;;;;;4976590;28;20182;-62
2023/01/26 09:20:38;;;;;;;19.27;6.93;;;;;;;;;;4976542;28;20050;-61
2023/01/26 09:23:04;;;;;;;17.00;6.80;;;;;;;;;;4976259;28;20041;-61
2023/01/26 09:25:29;;;;;;;14.77;6.28;;;;;;;;;;4976194;28;20110;-61
2023/01/26 09:27:55;;;;;;;11.52;6.13;;;;;;;;;;4976463;28;20074;-61
2023/01/26 09:30:23;;;;;;;16.65;6.97;;;;;;;;;;4976244;28;20483;-61
2023/01/26 09:32:49;;;;;;;16.42;6.80;;;;;;;;;;4976376;28;20195;-62
2023/01/26 09:35:15;;;;;;;18.33;6.70;;;;;;;;;;4976214;28;20022;-62
2023/01/26 09:37:42;;;;;;;14.88;6.75;;;;;;;;;;4958774;28;20101;-61
2023/01/26 09:40:16;;;;;;;16.45;6.88;;;;;;;;;;4977431;28;20045;-62
2023/01/26 09:42:53;;;;;;;21.10;9.05;;;;;;;;;;4988554;28;20023;-62
2023/01/26 09:45:50;;;;;;;16.48;8.00;;;;;;;;;;4987982;28;20125;-62
2023/01/26 09:48:37;;;;;;;16.60;7.57;;;;;;;;;;4993375;28;20037;-61
2023/01/26 09:51:11;;;;;;;15.20;6.45;;;;;;;;;;4993768;28;20038;-61
2023/01/26 09:53:46;;;;;;;14.75;6.85;;;;;;;;;;4994002;28;20029;-63
2023/01/26 09:56:22;;;;;;;15.38;6.82;;;;;;;;;;4976347;28;20431;-63
2023/01/26 09:59:21;;;;;;;14.07;6.53;;;;;;;;;;4976029;28;20033;-62
2023/01/26 10:02:04;;;;;;;14.85;7.13;;;;;;;;;;4993335;28;20107;-60
2023/01/26 10:04:38;;;;;;;13.70;7.05;;;;;;;;;;4993514;28;20545;-61
2023/01/26 10:07:11;;;;;;;14.25;6.68;;;;;;;;;;4993483;28;20026;-61
2023/01/26 10:09:38;;;;;;;12.77;6.28;;;;;;;;;;4993407;28;20038;-60
2023/01/26 10:12:12;;;;;;;19.08;6.82;;;;;;;;;;4993485;28;20053;-61
2023/01/26 10:14:51;;;;;;;12.57;6.63;;;;;;;;;;4993362;28;20027;-62
2023/01/26 10:17:40;;;;;;;15.23;7.03;;;;;;;;;;4993233;28;20038;-62
2023/01/26 10:20:27;;;;;;;13.25;6.65;;;;;;;;;;4977745;28;20026;-61
2023/01/26 10:23:03;;;;;;;15.57;7.15;;;;;;;;;;4991727;28;20073;-62
2023/01/26 10:25:33;;;;;;;15.95;6.90;;;;;;;;;;4993349;28;20109;-62
2023/01/26 10:28:10;;;;;;;11.90;6.25;;;;;;;;;;4992992;28;20097;-62
2023/01/26 10:30:38;;;;;;;15.98;6.22;;;;;;;;;;4992919;28;20080;-62
2023/01/26 10:33:17;;;;;;;11.70;6.40;;;;;;;;;;4975494;28;20057;-61
2023/01/26 10:35:43;;;;;;;14.52;6.30;;;;;;;;;;4993142;28;20030;-62
2023/01/26 10:38:37;;;;;;;15.43;6.38;;;;;;;;;;4992895;28;20406;-62
2023/01/26 10:41:28;;;;;;;14.38;6.40;;;;;;;;;;4987127;28;20164;-61
2023/01/26 10:43:53;;;;;;;;;;;;;;;;;;4968205;28;20046;-61
2023/01/26 10:46:40;;;;;;;11.80;6.25;;;;;;;;;;4992809;28;19914;-62
2023/01/26 10:49:13;;;;;;;15.65;6.50;;;;;;;;;;4975044;28;20093;-61
2023/01/26 10:52:05;;;;;;;11.68;6.30;;;;;;;;;;4992847;28;20037;-62
2023/01/26 10:54:32;;;;;;;13.27;6.90;;;;;;;;;;4975174;28;20458;-61
2023/01/26 10:57:02;;;;;;;13.55;6.00;;;;;;;;;;4992669;28;20073;-62
2023/01/26 10:59:45;;;;;;;12.63;6.38;;;;;;;;;;4992575;28;20038;-63
2023/01/26 11:02:10;;;;;;;14.80;6.88;;;;;;;;;;4992551;28;20486;-62
2023/01/26 11:04:37;;;;;;;14.43;6.55;;;;;;;;;;4992476;28;20030;-61
2023/01/26 11:07:39;;;;;;;11.73;5.80;;;;;;;;;;4990385;28;20105;-61
2023/01/26 11:10:25;;;;;;;14.30;6.88;;;;;;;;;;4977803;28;20043;-61
2023/01/26 11:13:05;;;;;;;14.55;6.32;;;;;;;;;;4992703;28;20524;-61
2023/01/26 11:15:35;;;;;;;;;;;;;;;;;;4992429;28;20530;-61
2023/01/26 11:18:21;;;;;;;11.13;6.30;;;;;;;;;;4992386;28;19913;-61
2023/01/26 11:20:53;;;;;;;13.25;6.30;;;;;;;;;;4991490;28;20299;-62
2023/01/26 11:23:52;;;;;;;12.25;6.05;;;;;;;;;;4992015;28;20038;-61
2023/01/26 11:26:35;;;;;;;16.98;6.63;;;;;;;;;;4992375;28;20114;-63
2023/01/26 11:29:30;;;;;;;11.82;6.78;;;;;;;;;;4992075;28;20065;-61
2023/01/26 11:32:17;;;;;;;12.45;6.00;;;;;;;;;;4992232;28;20430;-62
2023/01/26 11:34:43;;;;;;;13.20;5.78;;;;;;;;;;4991577;28;20053;-62
2023/01/26 11:37:40;;;;;;;11.70;6.55;;;;;;;;;;4991883;28;20030;-62
2023/01/26 11:40:39;;;;;;;11.30;5.97;;;;;;;;;;4991794;28;20745;-63
2023/01/26 11:43:29;;;;;;;11.80;6.25;;;;;;;;;;4991628;28;20030;-63
2023/01/26 11:46:21;;;;;;;;;;;;;;;;;;4992098;28;20084;-61
2023/01/26 11:48:55;;;;;;;11.10;5.90;;;;;;;;;;4937387;28;20421;-63
2023/01/26 11:51:44;;;;;;;9.73;6.00;;;;;;;;;;4991778;28;20584;-62
2023/01/26 11:54:29;;;;;;;13.10;6.45;;;;;;;;;;4991836;28;20109;-63
2023/01/26 11:57:10;;;;;;;9.65;5.80;;;;;;;;;;4991611;28;20030;-62
2023/01/26 11:59:52;;;;;;;10.75;6.07;;;;;;;;;;4991651;28;20038;-62
2023/01/26 12:02:27;;;;;;;12.55;6.30;;;;;;;;;;4991787;28;20031;-61
2023/01/26 12:04:56;;;;;;;16.80;6.95;;;;;;;;;;4974520;28;20494;-61
2023/01/26 12:07:55;;;;;;;11.27;5.63;;;;;;;;;;4991637;28;20026;-60
2023/01/26 12:10:38;;;;;;;11.65;6.47;;;;;;;;;;4991971;28;20065;-61
2023/01/26 12:13:19;;;;;;;12.48;6.13;;;;;;;;;;4991632;28;20030;-61
2023/01/26 12:15:49;;;;;;;;;;;;;;;;;;4991526;28;20528;-60
2023/01/26 12:18:28;;;;;;;11.30;5.72;;;;;;;;;;4991438;28;20400;-62
2023/01/26 12:21:03;;;;;;;12.13;6.30;;;;;;;;;;4974000;28;20038;-61
2023/01/26 12:23:37;;;;;;;12.05;6.20;;;;;;;;;;4991919;28;20680;-60
2023/01/26 12:26:24;;;;;;;12.55;6.75;;;;;;;;;;4991319;28;20031;-60
2023/01/26 12:28:54;;;;;;;10.90;5.85;;;;;;;;;;4991285;28;20023;-60
2023/01/26 12:31:31;;;;;;;10.55;5.88;;;;;;;;;;4991403;28;20057;-61
2023/01/26 12:33:56;;;;;;;11.98;5.63;;;;;;;;;;4989560;28;20038;-60
2023/01/26 12:37:06;;;;;;;10.98;5.80;;;;;;;;;;4973497;28;20458;-62
2023/01/26 12:39:50;;;;;;;12.48;6.20;;;;;;;;;;4991439;28;20030;-62
2023/01/26 12:42:18;;;;;;;14.35;5.93;;;;;;;;;;4991280;28;20022;-62
2023/01/26 12:44:55;;;;;;;11.27;6.00;;;;;;;;;;4991245;28;20034;-60
2023/01/26 12:47:54;;;;;;;12.18;5.82;;;;;;;;;;4982806;28;20117;-61
2023/01/26 12:50:34;;;;;;;13.30;6.03;;;;;;;;;;4975753;28;20114;-61
2023/01/26 12:53:29;;;;;;;9.45;5.45;;;;;;;;;;4942925;28;20450;-61
2023/01/26 12:56:41;;;;;;;11.93;5.97;;;;;;;;;;4975464;28;20446;-61
2023/01/26 12:59:25;;;;;;;13.20;6.13;;;;;;;;;;4975234;28;20534;-63
2023/01/26 13:01:51;;;;;;;13.98;5.90;;;;;;;;;;4975362;28;20038;-61
2023/01/26 13:04:17;;;;;;;11.80;6.10;;;;;;;;;;4975520;28;20038;-61
2023/01/26 13:06:42;;;;;;;10.32;5.55;;;;;;;;;;4975368;28;20023;-62
2023/01/26 13:09:21;;;;;;;8.25;5.53;;;;;;;;;;4958513;28;20818;-61
2023/01/26 13:11:49;;;;;;;9.90;6.40;;;;;;;;;;4975104;28;20034;-60
2023/01/26 13:14:28;;;;;;;9.43;5.85;;;;;;;;;;4974871;28;20089;-61
2023/01/26 13:16:54;;;;;;;12.02;6.13;;;;;;;;;;4974911;28;20047;-60
2023/01/26 13:19:53;;;;;;;11.35;5.55;;;;;;;;;;4974887;28;20785;-61
2023/01/26 13:22:22;;;;;;;9.45;5.72;;;;;;;;;;4922014;28;20046;-61
2023/01/26 13:25:11;;;;;;;10.40;5.95;;;;;;;;;;4974606;28;20090;-61
2023/01/26 13:27:36;;;;;;;9.00;5.68;;;;;;;;;;4974842;28;20030;-62
2023/01/26 13:30:25;;;;;;;12.80;6.22;;;;;;;;;;4957185;28;20465;-61
2023/01/26 13:33:13;;;;;;;10.48;6.10;;;;;;;;;;4974600;28;20027;-61
2023/01/26 13:35:40;;;;;;;8.60;5.47;;;;;;;;;;4974470;28;20065;-61
2023/01/26 13:38:18;;;;;;;10.40;5.78;;;;;;;;;;4974580;28;20085;-61
2023/01/26 13:40:48;;;;;;;11.68;6.15;;;;;;;;;;4974265;28;20031;-62
2023/01/26 13:43:17;;;;;;;;;;;;;;;;;;4974895;28;20499;-61
2023/01/26 13:46:21;;;;;;;11.88;5.88;;;;;;;;;;4974337;28;20389;-61
2023/01/26 13:48:48;;;;;;;11.75;6.32;;;;;;;;;;4924861;28;20097;-61
2023/01/26 13:51:26;;;;;;;9.57;6.35;;;;;;;;;;4974274;28;20114;-61
2023/01/26 13:54:11;;;;;;;11.02;6.22;;;;;;;;;;4974364;28;20026;-60
2023/01/26 13:56:39;;;;;;;12.73;6.35;;;;;;;;;;4974100;28;20035;-61
2023/01/26 13:59:11;;;;;;;10.80;6.28;;;;;;;;;;4973755;28;20038;-61
2023/01/26 14:01:43;;;;;;;13.07;6.85;;;;;;;;;;4987574;28;20026;-60
2023/01/26 14:04:17;;;;;;;11.63;6.32;;;;;;;;;;4999807;28;20486;-62
2023/01/26 14:07:03;;;;;;;10.38;6.30;;;;;;;;;;4993215;28;20042;-62
2023/01/26 14:09:34;;;;;;;9.45;5.75;;;;;;;;;;4992256;28;20034;-61
2023/01/26 14:12:02;;;;;;;9.82;6.03;;;;;;;;;;4990752;28;20821;-61
2023/01/26 14:14:32;;;;;;;12.68;6.18;;;;;;;;;;4991442;28;20169;-61
2023/01/26 14:16:58;;;;;;;11.70;6.50;;;;;;;;;;4992597;28;20046;-61
2023/01/26 14:19:26;;;;;;;10.27;6.38;;;;;;;;;;4992817;28;20038;-62
2023/01/26 14:21:59;;;;;;;11.40;6.28;;;;;;;;;;4992951;28;20044;-61
2023/01/26 14:24:40;;;;;;;11.30;6.20;;;;;;;;;;4993230;28;20038;-61
2023/01/26 14:27:25;;;;;;;10.32;6.03;;;;;;;;;;4993241;28;20065;-61
2023/01/26 14:29:51;;;;;;;9.63;6.10;;;;;;;;;;4992898;28;20038;-60
2023/01/26 14:32:16;;;;;;;10.52;5.93;;;;;;;;;;4992941;28;20455;-62
2023/01/26 14:34:53;;;;;;;11.88;6.70;;;;;;;;;;4993525;28;20034;-61
2023/01/26 14:37:19;;;;;;;11.35;6.30;;;;;;;;;;4992699;28;20072;-62
2023/01/26 14:39:46;;;;;;;11.98;6.65;;;;;;;;;;4991313;28;20062;-61
2023/01/26 14:42:18;;;;;;;12.32;6.38;;;;;;;;;;4992804;28;20034;-61
2023/01/26 14:44:44;;;;;;;12.20;5.70;;;;;;;;;;4992667;28;20037;-61
2023/01/26 14:47:21;;;;;;;9.15;6.18;;;;;;;;;;4992544;28;20085;-61
2023/01/26 14:50:10;;;;;;;12.32;6.55;;;;;;;;;;4992607;28;20041;-60
2023/01/26 14:52:37;;;;;;;11.43;6.72;;;;;;;;;;4992640;28;20038;-61
2023/01/26 14:55:06;;;;;;;8.88;5.68;;;;;;;;;;4992625;28;20027;-61
2023/01/26 14:57:32;;;;;;;10.63;5.53;;;;;;;;;;4992290;28;20026;-61
2023/01/26 15:00:00;;;;;;;8.95;5.55;;;;;;;;;;4992394;28;20045;-59
2023/01/26 15:02:47;;;;;;;11.85;6.22;;;;;;;;;;4992439;28;20481;-61
2023/01/26 15:05:19;;;;;;;14.65;5.65;;;;;;;;;;4992223;28;20475;-60
2023/01/26 15:08:00;;;;;;;10.48;5.88;;;;;;;;;;4992192;28;20470;-60
2023/01/26 15:10:39;;;;;;;9.65;5.85;;;;;;;;;;4992056;28;20077;-60
2023/01/26 15:13:14;;;;;;;10.48;6.03;;;;;;;;;;4985457;28;20092;-62
2023/01/26 15:16:00;;;;;;;12.10;6.07;;;;;;;;;;4976919;28;20128;-61
2023/01/26 15:18:31;;;;;;;9.95;5.85;;;;;;;;;;4991445;28;20395;-61
2023/01/26 15:21:00;;;;;;;10.30;6.00;;;;;;;;;;4987139;28;20449;-61
2023/01/26 15:23:35;;;;;;;9.52;6.15;;;;;;;;;;4987332;28;20030;-61
2023/01/26 15:26:06;;;;;;;9.68;6.18;;;;;;;;;;4990217;28;20486;-61
2023/01/26 15:28:32;;;;;;;7.70;5.75;;;;;;;;;;4991478;28;20022;-61
2023/01/26 15:30:57;;;;;;;9.07;5.50;;;;;;;;;;4991799;28;20031;-61
2023/01/26 15:33:44;;;;;;;11.70;6.03;;;;;;;;;;4991028;28;20072;-61
2023/01/26 15:36:27;;;;;;;10.50;6.18;;;;;;;;;;4991347;28;20049;-61
2023/01/26 15:39:00;;;;;;;10.98;5.45;;;;;;;;;;4991203;28;20112;-61
2023/01/26 15:41:27;;;;;;;9.15;5.50;;;;;;;;;;4991384;28;20431;-61
2023/01/26 15:43:53;;;;;;;8.88;5.60;;;;;;;;;;4991953;28;20022;-60